createdAt,value
2023-02-14T00:00:45.095Z,101778.41
2023-02-14T00:03:12.893Z,101779.25
2023-02-14T00:05:40.546Z,101776.69
2023-02-14T00:08:08.177Z,101783.06
2023-02-14T00:10:35.828Z,101783.31
2023-02-14T00:13:03.821Z,101779.25
2023-02-14T00:15:30.455Z,101784.84
2023-02-14T00:17:59.855Z,101778.13
2023-02-14T00:20:27.560Z,101779.25
2023-02-14T00:22:55.885Z,101777.63
2023-02-14T00:25:23.902Z,101782.09
2023-02-14T00:27:51.946Z,101785.72
2023-02-14T00:30:20.196Z,101779.69
2023-02-14T00:32:48.137Z,101784.22
2023-02-14T00:35:15.735Z,101787.78
2023-02-14T00:37:43.347Z,101775.53
2023-02-14T00:40:11.039Z,101787.88
2023-02-14T00:42:38.904Z,101784.34
2023-02-14T00:45:06.872Z,101772.94
2023-02-14T00:47:34.529Z,101786.03
2023-02-14T00:50:03.269Z,101779.81
2023-02-14T00:52:30.997Z,101784.09
2023-02-14T00:54:58.831Z,101784.03
2023-02-14T00:57:26.438Z,101780.56
2023-02-14T00:59:54.071Z,101780.69
2023-02-14T01:02:22.116Z,101786.97
2023-02-14T01:04:49.756Z,101793.34
2023-02-14T01:07:19.194Z,101786.59
2023-02-14T01:09:46.848Z,101783.28
2023-02-14T01:12:14.458Z,101795.69
2023-02-14T01:14:42.439Z,101793.16
2023-02-14T01:17:10.185Z,101794.06
2023-02-14T01:19:38.463Z,101790.53
2023-02-14T01:22:06.096Z,101792.25
2023-02-14T01:24:33.787Z,101785.25
2023-02-14T01:27:01.758Z,101786.94
2023-02-14T01:29:29.747Z,101786.94
2023-02-14T01:31:57.442Z,101773.75
2023-02-14T01:34:25.070Z,101781.56
2023-02-14T01:36:52.724Z,101772.78
2023-02-14T01:39:20.749Z,101778.94
2023-02-14T01:41:49.202Z,101776.38
2023-02-14T01:44:16.974Z,101781.69
2023-02-14T01:46:44.600Z,101782.66
2023-02-14T01:49:12.220Z,101774.03
2023-02-14T01:51:40.586Z,101780.22
2023-02-14T01:54:08.235Z,101785.56
2023-02-14T01:56:35.845Z,101780.38
2023-02-14T01:59:03.445Z,101778.69
2023-02-14T02:01:31.151Z,101770.78
2023-02-14T02:03:59.185Z,101767.22
2023-02-14T02:06:26.770Z,101772.41
2023-02-14T02:08:54.432Z,101768.88
2023-02-14T02:11:22.000Z,101765.31
2023-02-14T02:13:50.120Z,101764.41
2023-02-14T02:16:18.251Z,101765.28
2023-02-14T02:18:45.892Z,101753.00
2023-02-14T02:21:13.648Z,101759.09
2023-02-14T02:23:41.288Z,101771.31
2023-02-14T02:26:08.880Z,101761.63
2023-02-14T02:28:36.550Z,101758.97
2023-02-14T02:31:04.526Z,101759.00
2023-02-14T02:33:32.461Z,101754.63
2023-02-14T02:36:00.028Z,101752.03
2023-02-14T02:38:27.683Z,101750.22
2023-02-14T02:40:55.648Z,101750.13
2023-02-14T02:43:23.226Z,101744.75
2023-02-14T02:46:08.440Z,101743.72
2023-02-14T02:48:36.389Z,101742.63
2023-02-14T02:51:21.844Z,101743.41
2023-02-14T02:53:49.438Z,101738.88
2023-02-14T02:56:34.696Z,101743.16
2023-02-14T02:59:02.663Z,101736.91
2023-02-14T03:01:30.405Z,101739.59
2023-02-14T03:04:15.685Z,101744.13
2023-02-14T03:06:43.297Z,101742.53
2023-02-14T03:09:11.031Z,101736.59
2023-02-14T03:11:38.842Z,101734.16
2023-02-14T03:14:06.442Z,101736.97
2023-02-14T03:16:34.057Z,101723.91
2023-02-14T03:19:01.773Z,101736.19
2023-02-14T03:21:28.339Z,101731.00
2023-02-14T03:23:56.470Z,101728.47
2023-02-14T03:26:24.113Z,101724.19
2023-02-14T03:28:51.721Z,101747.91
2023-02-14T03:31:19.492Z,101727.78
2023-02-14T03:33:47.184Z,101728.72
2023-02-14T03:36:15.336Z,101728.72
2023-02-14T03:38:43.266Z,101726.09
2023-02-14T03:41:10.975Z,101726.94
2023-02-14T03:43:38.559Z,101724.31
2023-02-14T03:46:06.204Z,101718.22
2023-02-14T03:48:34.212Z,101722.66
2023-02-14T03:51:01.984Z,101721.84
2023-02-14T03:53:29.760Z,101725.44
2023-02-14T03:55:57.383Z,101723.81
2023-02-14T03:58:25.018Z,101721.19
2023-02-14T04:00:55.493Z,101729.06
2023-02-14T04:03:23.805Z,101720.28
2023-02-14T04:05:52.561Z,101710.66
2023-02-14T04:08:20.266Z,101707.16
2023-02-14T04:10:47.906Z,101717.66
2023-02-14T04:13:15.961Z,101716.78
2023-02-14T04:15:43.620Z,101716.84
2023-02-14T04:18:28.600Z,101710.78
2023-02-14T04:20:56.608Z,101712.56
2023-02-14T04:23:24.617Z,101709.16
2023-02-14T04:25:52.319Z,101710.94
2023-02-14T04:28:19.954Z,101704.88
2023-02-14T04:30:47.599Z,101709.25
2023-02-14T04:33:15.211Z,101705.84
2023-02-14T04:35:42.856Z,101700.63
2023-02-14T04:38:10.508Z,101699.84
2023-02-14T04:40:38.164Z,101707.75
2023-02-14T04:43:07.624Z,101702.50
2023-02-14T04:45:35.207Z,101702.56
2023-02-14T04:48:03.267Z,101695.59
2023-02-14T04:50:30.922Z,101704.41
2023-02-14T04:52:58.501Z,101693.97
2023-02-14T04:55:27.410Z,101696.59
2023-02-14T04:57:55.043Z,101690.53
2023-02-14T05:00:22.898Z,101688.78
2023-02-14T05:02:50.575Z,101686.19
2023-02-14T05:05:18.185Z,101686.25
2023-02-14T05:07:47.897Z,101676.72
2023-02-14T05:10:15.788Z,101680.25
2023-02-14T05:12:43.720Z,101673.34
2023-02-14T05:15:11.331Z,101677.75
2023-02-14T05:17:38.926Z,101674.28
2023-02-14T05:20:06.817Z,101668.19
2023-02-14T05:22:34.445Z,101670.00
2023-02-14T05:25:02.651Z,101666.53
2023-02-14T05:27:30.743Z,101659.47
2023-02-14T05:29:58.386Z,101656.78
2023-02-14T05:32:26.058Z,101656.66
2023-02-14T05:34:54.488Z,101652.16
2023-02-14T05:37:22.556Z,101660.81
2023-02-14T05:39:50.218Z,101651.13
2023-02-14T05:42:18.202Z,101664.13
2023-02-14T05:44:45.830Z,101664.09
2023-02-14T05:47:13.507Z,101665.81
2023-02-14T05:49:42.638Z,101670.25
2023-02-14T05:52:10.361Z,101665.00
2023-02-14T05:54:38.367Z,101659.84
2023-02-14T05:57:05.980Z,101662.69
2023-02-14T05:59:33.657Z,101664.59
2023-02-14T06:02:01.430Z,101661.13
2023-02-14T06:04:29.130Z,101661.13
2023-02-14T06:06:57.128Z,101654.09
2023-02-14T06:09:24.882Z,101665.50
2023-02-14T06:11:55.181Z,101668.09
2023-02-14T06:14:23.450Z,101663.75
2023-02-14T06:16:51.173Z,101664.66
2023-02-14T06:19:18.931Z,101662.94
2023-02-14T06:21:46.534Z,101667.28
2023-02-14T06:24:14.511Z,101673.44
2023-02-14T06:26:42.308Z,101661.13
2023-02-14T06:29:09.973Z,101666.38
2023-02-14T06:31:38.110Z,101667.22
2023-02-14T06:34:05.966Z,101678.53
2023-02-14T06:36:33.593Z,101688.19
2023-02-14T06:39:01.302Z,101691.72
2023-02-14T06:41:28.932Z,101687.38
2023-02-14T06:43:56.921Z,101682.13
2023-02-14T06:46:24.651Z,101684.75
2023-02-14T06:48:52.329Z,101689.09
2023-02-14T06:51:20.375Z,101680.25
2023-02-14T06:53:48.080Z,101685.41
2023-02-14T06:56:15.900Z,101679.19
2023-02-14T06:58:43.574Z,101679.13
2023-02-14T07:01:11.479Z,101686.03
2023-02-14T07:03:40.967Z,101684.28
2023-02-14T07:06:08.693Z,101686.97
2023-02-14T07:08:36.817Z,101693.16
2023-02-14T07:11:04.547Z,101693.22
2023-02-14T07:13:32.276Z,101690.59
2023-02-14T07:16:01.930Z,101687.88
2023-02-14T07:18:29.620Z,101699.03
2023-02-14T07:20:58.098Z,101695.34
2023-02-14T07:23:26.199Z,101698.75
2023-02-14T07:25:53.890Z,101689.03
2023-02-14T07:28:21.580Z,101693.34
2023-02-14T07:30:49.343Z,101693.34
2023-02-14T07:33:17.092Z,101700.28
2023-02-14T07:35:44.803Z,101691.47
2023-02-14T07:38:12.976Z,101687.88
2023-02-14T07:40:40.655Z,101691.28
2023-02-14T07:43:08.485Z,101680.59
2023-02-14T07:45:36.912Z,101685.66
2023-02-14T07:48:04.823Z,101677.50
2023-02-14T07:50:32.573Z,101679.09
2023-02-14T07:53:00.562Z,101683.28
2023-02-14T07:55:28.438Z,101679.72
2023-02-14T07:57:56.587Z,101684.06
2023-02-14T08:00:24.825Z,101679.72
2023-02-14T08:02:52.643Z,101679.72
2023-02-14T08:05:21.166Z,101677.97
2023-02-14T08:07:49.118Z,101677.00
2023-02-14T08:10:17.348Z,101677.72
2023-02-14T08:13:00.297Z,101679.09
2023-02-14T08:15:45.394Z,101672.06
2023-02-14T08:18:13.651Z,101670.88
2023-02-14T08:20:41.863Z,101667.03
2023-02-14T08:23:09.653Z,101667.00
2023-02-14T08:25:37.435Z,101669.19
2023-02-14T08:28:05.286Z,101671.66
2023-02-14T08:30:33.290Z,101670.56
2023-02-14T08:33:02.020Z,101671.75
2023-02-14T08:35:29.849Z,101663.78
2023-02-14T08:37:57.701Z,101664.66
2023-02-14T08:40:25.527Z,101661.25
2023-02-14T08:42:54.858Z,101657.09
2023-02-14T08:45:23.015Z,101654.09
2023-02-14T08:47:50.929Z,101654.59
2023-02-14T08:50:18.752Z,101656.88
2023-02-14T08:52:46.618Z,101658.16
2023-02-14T08:55:14.572Z,101657.72
2023-02-14T08:57:42.866Z,101669.75
2023-02-14T09:00:10.626Z,101660.50
2023-02-14T09:02:38.562Z,101663.34
2023-02-14T09:05:06.470Z,101657.25
2023-02-14T09:07:34.717Z,101653.00
2023-02-14T09:10:03.054Z,101653.28
2023-02-14T09:12:30.933Z,101652.91
2023-02-14T09:14:58.717Z,101646.41
2023-02-14T09:17:26.623Z,101638.13
2023-02-14T09:19:54.783Z,101646.81
2023-02-14T09:22:22.974Z,101648.63
2023-02-14T09:24:50.830Z,101645.16
2023-02-14T09:27:19.032Z,101644.38
2023-02-14T09:29:46.839Z,101634.69
2023-02-14T09:32:15.275Z,101635.56
2023-02-14T09:34:44.312Z,101634.69
2023-02-14T09:37:12.186Z,101627.72
2023-02-14T09:39:40.239Z,101633.94
2023-02-14T09:42:08.026Z,101622.47
2023-02-14T09:44:36.080Z,101629.44
2023-02-14T09:47:03.920Z,101631.97
2023-02-14T09:49:34.699Z,101628.22
2023-02-14T09:52:02.551Z,101622.72
2023-02-14T09:54:30.413Z,101615.44
2023-02-14T09:56:58.635Z,101613.31
2023-02-14T09:59:27.979Z,101610.22
2023-02-14T10:01:56.103Z,101611.41
2023-02-14T10:04:24.077Z,101614.25
2023-02-14T10:06:51.876Z,101610.75
2023-02-14T10:09:19.846Z,101609.94
2023-02-14T10:11:48.524Z,101599.38
2023-02-14T10:14:16.310Z,101598.38
2023-02-14T10:16:44.278Z,101590.22
2023-02-14T10:19:12.199Z,101595.91
2023-02-14T10:21:40.145Z,101593.63
2023-02-14T10:24:09.566Z,101583.97
2023-02-14T10:26:37.513Z,101579.34
2023-02-14T10:29:05.369Z,101575.09
2023-02-14T10:31:33.500Z,101566.81
2023-02-14T10:34:01.701Z,101560.34
2023-02-14T10:36:29.935Z,101556.19
2023-02-14T10:38:57.929Z,101548.63
2023-02-14T10:41:25.902Z,101540.88
2023-02-14T10:43:53.732Z,101542.19
2023-02-14T10:46:22.031Z,101547.78
2023-02-14T10:48:50.245Z,101539.69
2023-02-14T10:51:18.195Z,101547.34
2023-02-14T10:53:46.122Z,101529.44
2023-02-14T10:56:14.075Z,101525.03
2023-02-14T10:58:42.375Z,101538.03
2023-02-14T11:01:11.162Z,101527.59
2023-02-14T11:03:39.270Z,101532.69
2023-02-14T11:06:07.205Z,101535.91
2023-02-14T11:08:35.144Z,101524.50
2023-02-14T11:11:03.689Z,101526.03
2023-02-14T11:13:32.118Z,101512.59
2023-02-14T11:16:01.298Z,101516.81
2023-02-14T11:18:33.064Z,101514.38
2023-02-14T11:21:01.219Z,101517.56
2023-02-14T11:23:29.307Z,101513.53
2023-02-14T11:25:57.717Z,101523.13
2023-02-14T11:28:25.798Z,101502.75
2023-02-14T11:30:53.796Z,101502.13
2023-02-14T11:33:21.767Z,101490.28
2023-02-14T11:35:49.897Z,101492.41
2023-02-14T11:38:18.619Z,101490.97
2023-02-14T11:40:46.451Z,101483.66
2023-02-14T11:43:15.192Z,101473.75
2023-02-14T11:45:43.281Z,101470.91
2023-02-14T11:48:11.694Z,101473.25
2023-02-14T11:50:40.183Z,101469.03
2023-02-14T11:53:08.142Z,101464.75
2023-02-14T11:55:36.006Z,101462.25
2023-02-14T11:58:03.951Z,101460.13
2023-02-14T12:00:34.235Z,101464.22
2023-02-14T12:03:02.100Z,101453.53
2023-02-14T12:05:30.782Z,101455.94
2023-02-14T12:07:58.906Z,101444.84
2023-02-14T12:10:26.829Z,101442.19
2023-02-14T12:12:55.021Z,101433.13
2023-02-14T12:15:23.251Z,101436.59
2023-02-14T12:17:51.206Z,101441.75
2023-02-14T12:20:19.352Z,101442.97
2023-02-14T12:22:47.881Z,101436.81
2023-02-14T12:25:16.107Z,101427.09
2023-02-14T12:27:44.941Z,101419.94
2023-02-14T12:30:14.534Z,101417.53
2023-02-14T12:32:42.701Z,101422.63
2023-02-14T12:35:10.860Z,101420.31
2023-02-14T12:37:39.145Z,101419.50
2023-02-14T12:40:07.587Z,101413.72
2023-02-14T12:42:35.633Z,101410.81
2023-02-14T12:45:04.198Z,101406.72
2023-02-14T12:47:32.473Z,101406.41
2023-02-14T12:50:00.730Z,101403.03
2023-02-14T12:52:28.685Z,101399.81
2023-02-14T12:54:56.549Z,101394.09
2023-02-14T12:57:24.683Z,101392.38
2023-02-14T12:59:52.474Z,101391.19
2023-02-14T13:02:20.519Z,101395.41
2023-02-14T13:04:48.797Z,101387.19
2023-02-14T13:07:17.264Z,101380.84
2023-02-14T13:09:45.333Z,101381.88
2023-02-14T13:12:13.409Z,101377.03
2023-02-14T13:14:41.510Z,101374.00
2023-02-14T13:17:09.374Z,101363.34
2023-02-14T13:19:37.982Z,101365.91
2023-02-14T13:22:05.904Z,101365.94
2023-02-14T13:24:33.799Z,101370.34
2023-02-14T13:27:02.096Z,101359.28
2023-02-14T13:29:30.813Z,101356.03
2023-02-14T13:31:58.774Z,101356.00
2023-02-14T13:34:27.021Z,101354.41
2023-02-14T13:36:54.984Z,101353.03
2023-02-14T13:39:23.042Z,101347.34
2023-02-14T13:41:51.537Z,101357.81
2023-02-14T13:44:19.506Z,101344.84
2023-02-14T13:46:47.448Z,101346.94
2023-02-14T13:49:15.489Z,101343.63
2023-02-14T13:51:44.929Z,101346.34
2023-02-14T13:54:13.446Z,101341.19
2023-02-14T13:56:41.667Z,101331.41
2023-02-14T13:59:09.615Z,101332.28
2023-02-14T14:01:37.906Z,101334.34
2023-02-14T14:04:06.038Z,101336.16
2023-02-14T14:06:34.456Z,101332.31
2023-02-14T14:09:02.429Z,101330.91
2023-02-14T14:11:30.401Z,101328.44
2023-02-14T14:13:58.749Z,101331.53
2023-02-14T14:16:27.187Z,101331.72
2023-02-14T14:18:55.473Z,101323.00
2023-02-14T14:21:23.491Z,101331.28
2023-02-14T14:23:51.350Z,101335.19
2023-02-14T14:26:19.327Z,101329.06
2023-02-14T14:28:47.284Z,101322.63
2023-02-14T14:31:15.555Z,101325.97
2023-02-14T14:33:43.800Z,101318.06
2023-02-14T14:36:11.717Z,101311.69
2023-02-14T14:38:39.577Z,101310.53
2023-02-14T14:41:09.999Z,101304.47
2023-02-14T14:43:38.078Z,101311.72
2023-02-14T14:46:06.056Z,101309.81
2023-02-14T14:48:34.207Z,101305.59
2023-02-14T14:51:02.179Z,101303.50
2023-02-14T14:53:30.048Z,101296.09
2023-02-14T14:55:58.802Z,101295.63
2023-02-14T14:58:27.275Z,101292.59
2023-02-14T15:00:55.227Z,101289.13
2023-02-14T15:03:23.335Z,101300.72
2023-02-14T15:05:51.317Z,101290.06
2023-02-14T15:08:19.606Z,101284.25
2023-02-14T15:10:47.594Z,101288.47
2023-02-14T15:13:32.586Z,101287.94
2023-02-14T15:16:03.735Z,101280.94
2023-02-14T15:18:32.659Z,101286.38
2023-02-14T15:21:00.908Z,101285.38
2023-02-14T15:23:28.990Z,101279.31
2023-02-14T15:25:57.199Z,101270.91
2023-02-14T15:28:25.591Z,101270.00
2023-02-14T15:30:54.559Z,101283.78
2023-02-14T15:33:22.678Z,101276.06
2023-02-14T15:35:50.617Z,101276.78
2023-02-14T15:38:18.742Z,101285.91
2023-02-14T15:40:48.163Z,101287.53
2023-02-14T15:43:16.368Z,101286.34
2023-02-14T15:45:45.448Z,101290.66
2023-02-14T15:48:13.464Z,101293.38
2023-02-14T15:50:41.875Z,101285.69
2023-02-14T15:53:10.121Z,101284.84
2023-02-14T15:55:38.071Z,101288.13
2023-02-14T15:58:06.077Z,101284.75
2023-02-14T16:00:34.098Z,101284.06
2023-02-14T16:03:02.948Z,101290.19
2023-02-14T16:05:30.980Z,101281.94
2023-02-14T16:07:59.410Z,101285.22
2023-02-14T16:10:27.311Z,101286.53
2023-02-14T16:12:57.415Z,101285.41
2023-02-14T16:15:25.686Z,101288.63
2023-02-14T16:17:53.603Z,101295.41
2023-02-14T16:20:23.025Z,101291.22
2023-02-14T16:22:51.492Z,101293.25
2023-02-14T16:25:19.514Z,101307.00
2023-02-14T16:27:47.475Z,101302.78
2023-02-14T16:30:15.869Z,101300.19
2023-02-14T16:32:44.395Z,101306.31
2023-02-14T16:35:12.284Z,101302.56
2023-02-14T16:37:40.424Z,101298.75
2023-02-14T16:40:08.394Z,101303.84
2023-02-14T16:42:37.289Z,101301.00
2023-02-14T16:45:06.234Z,101302.78
2023-02-14T16:47:34.230Z,101304.41
2023-02-14T16:50:02.307Z,101296.97
2023-02-14T16:52:30.433Z,101303.91
2023-02-14T16:54:58.534Z,101307.47
2023-02-14T16:57:27.989Z,101311.13
2023-02-14T16:59:56.277Z,101313.00
2023-02-14T17:02:28.620Z,101319.34
2023-02-14T17:04:56.746Z,101323.78
2023-02-14T17:07:29.868Z,101323.84
2023-02-14T17:09:57.878Z,101321.22
2023-02-14T17:12:25.760Z,101318.41
2023-02-14T17:14:53.820Z,101320.78
2023-02-14T17:17:21.942Z,101325.88
2023-02-14T17:19:52.757Z,101323.13
2023-02-14T17:22:20.914Z,101329.91
2023-02-14T17:24:48.826Z,101318.97
2023-02-14T17:27:16.652Z,101324.78
2023-02-14T17:29:44.959Z,101334.28
2023-02-14T17:32:13.612Z,101327.75
2023-02-14T17:34:42.184Z,101330.03
2023-02-14T17:37:10.204Z,101323.50
2023-02-14T17:39:38.333Z,101322.25
2023-02-14T17:42:06.315Z,101324.44
2023-02-14T17:44:36.715Z,101325.88
2023-02-14T17:47:04.706Z,101322.75
2023-02-14T17:49:32.784Z,101325.03
2023-02-14T17:52:00.956Z,101319.31
2023-02-14T17:54:29.073Z,101325.09
2023-02-14T17:56:57.410Z,101329.16
2023-02-14T17:59:25.989Z,101317.19
2023-02-14T18:01:54.092Z,101328.19
2023-02-14T18:04:22.027Z,101322.31
2023-02-14T18:06:49.874Z,101324.25
2023-02-14T18:09:20.612Z,101323.66
2023-02-14T18:11:48.521Z,101309.56
2023-02-14T18:14:16.860Z,101322.22
2023-02-14T18:16:44.990Z,101313.78
2023-02-14T18:19:16.008Z,101321.19
2023-02-14T18:21:44.935Z,101316.63
2023-02-14T18:24:12.889Z,101318.19
2023-02-14T18:26:40.849Z,101317.75
2023-02-14T18:29:08.938Z,101323.63
2023-02-14T18:31:37.024Z,101318.88
2023-02-14T18:34:05.846Z,101320.06
2023-02-14T18:36:34.218Z,101325.72
2023-02-14T18:39:02.166Z,101321.56
2023-02-14T18:41:30.106Z,101324.13
2023-02-14T18:43:58.017Z,101326.53
2023-02-14T18:46:26.482Z,101324.81
2023-02-14T18:48:54.432Z,101318.00
2023-02-14T18:51:22.493Z,101319.97
2023-02-14T18:53:52.482Z,101312.28
2023-02-14T18:56:21.163Z,101322.25
2023-02-14T18:58:53.011Z,101317.28
2023-02-14T19:01:21.042Z,101312.22
2023-02-14T19:03:49.858Z,101312.44
2023-02-14T19:06:18.399Z,101312.44
2023-02-14T19:08:46.250Z,101319.59
2023-02-14T19:11:15.267Z,101314.56
2023-02-14T19:13:43.422Z,101312.06
2023-02-14T19:16:11.583Z,101309.31
2023-02-14T19:18:39.602Z,101300.31
2023-02-14T19:21:07.974Z,101297.47
2023-02-14T19:23:36.654Z,101302.50
2023-02-14T19:26:06.038Z,101303.03
2023-02-14T19:28:34.150Z,101301.31
2023-02-14T19:31:02.430Z,101305.75
2023-02-14T19:33:30.727Z,101305.69
2023-02-14T19:35:59.018Z,101298.59
2023-02-14T19:38:26.955Z,101300.50
2023-02-14T19:40:54.888Z,101298.00
2023-02-14T19:43:23.307Z,101299.19
2023-02-14T19:45:51.362Z,101298.66
2023-02-14T19:48:19.645Z,101303.63
2023-02-14T19:50:47.681Z,101294.69
2023-02-14T19:53:15.455Z,101294.53
2023-02-14T19:55:43.448Z,101293.44
2023-02-14T19:58:11.402Z,101290.44
2023-02-14T20:00:40.287Z,101297.06
2023-02-14T20:03:08.165Z,101280.75
2023-02-14T20:05:36.181Z,101275.03
2023-02-14T20:08:04.116Z,101277.88
2023-02-14T20:10:32.037Z,101277.31
2023-02-14T20:13:00.148Z,101275.81
2023-02-14T20:15:29.339Z,101282.31
2023-02-14T20:17:57.267Z,101280.91
2023-02-14T20:20:25.351Z,101280.25
2023-02-14T20:22:53.290Z,101282.13
2023-02-14T20:25:21.879Z,101280.53
2023-02-14T20:27:50.371Z,101276.28
2023-02-14T20:30:21.007Z,101271.16
2023-02-14T20:32:48.742Z,101273.97
2023-02-14T20:35:16.685Z,101274.09
2023-02-14T20:37:45.282Z,101275.00
2023-02-14T20:40:13.572Z,101280.41
2023-02-14T20:42:41.591Z,101271.69
2023-02-14T20:45:09.763Z,101276.22
2023-02-14T20:47:37.785Z,101274.53
2023-02-14T20:50:07.644Z,101268.34
2023-02-14T20:52:35.612Z,101267.53
2023-02-14T20:55:03.534Z,101264.03
2023-02-14T20:57:31.535Z,101257.91
2023-02-14T20:59:59.359Z,101257.03
2023-02-14T21:02:27.721Z,101253.53
2023-02-14T21:04:55.906Z,101253.53
2023-02-14T21:07:23.733Z,101252.72
2023-02-14T21:09:51.592Z,101249.41
2023-02-14T21:12:19.937Z,101248.69
2023-02-14T21:14:48.305Z,101250.75
2023-02-14T21:17:16.171Z,101250.09
2023-02-14T21:19:44.052Z,101249.44
2023-02-14T21:22:11.963Z,101253.91
2023-02-14T21:24:39.938Z,101254.91
2023-02-14T21:27:08.900Z,101255.03
2023-02-14T21:29:36.847Z,101250.75
2023-02-14T21:32:04.810Z,101243.94
2023-02-14T21:34:33.029Z,101251.91
2023-02-14T21:37:00.798Z,101244.97
2023-02-14T21:39:31.484Z,101246.84
2023-02-14T21:42:00.178Z,101250.28
2023-02-14T21:44:45.427Z,101248.88
2023-02-14T21:47:13.319Z,101242.03
2023-02-14T21:49:58.875Z,101242.59
2023-02-14T21:52:27.241Z,101247.13
2023-02-14T21:54:55.484Z,101248.34
2023-02-14T21:57:23.318Z,101248.81
2023-02-14T21:59:51.347Z,101252.59
2023-02-14T22:02:19.725Z,101253.84
2023-02-14T22:04:47.866Z,101248.00
2023-02-14T22:07:16.174Z,101243.91
2023-02-14T22:09:44.065Z,101244.97
2023-02-14T22:12:11.954Z,101243.34
2023-02-14T22:14:40.451Z,101244.28
2023-02-14T22:17:10.270Z,101237.19
2023-02-14T22:19:38.251Z,101237.13
2023-02-14T22:22:06.058Z,101239.75
2023-02-14T22:24:33.935Z,101240.66
2023-02-14T22:27:02.063Z,101237.25
2023-02-14T22:29:30.219Z,101235.63
2023-02-14T22:31:58.035Z,101231.44
2023-02-14T22:34:25.893Z,101235.97
2023-02-14T22:36:53.790Z,101239.66
2023-02-14T22:39:22.108Z,101240.69
2023-02-14T22:41:50.231Z,101236.47
2023-02-14T22:44:18.111Z,101230.53
2023-02-14T22:46:46.072Z,101230.72
2023-02-14T22:49:14.083Z,101229.16
2023-02-14T22:51:41.874Z,101224.03
2023-02-14T22:54:09.973Z,101229.41
2023-02-14T22:56:38.986Z,101223.44
2023-02-14T22:59:06.883Z,101218.38
2023-02-14T23:01:34.632Z,101213.22
2023-02-14T23:04:02.877Z,101218.50
2023-02-14T23:06:30.933Z,101215.91
2023-02-14T23:08:58.622Z,101209.84
2023-02-14T23:11:26.429Z,101207.25
2023-02-14T23:14:12.067Z,101209.03
2023-02-14T23:16:57.065Z,101208.97
2023-02-14T23:19:42.072Z,101213.38
2023-02-14T23:22:10.833Z,101215.09
2023-02-14T23:24:38.608Z,101211.56
2023-02-14T23:27:06.295Z,101211.56
2023-02-14T23:29:33.980Z,101215.06
2023-02-14T23:32:02.402Z,101211.47
2023-02-14T23:34:30.373Z,101213.22
2023-02-14T23:36:58.521Z,101208.81
2023-02-14T23:39:26.221Z,101207.94
2023-02-14T23:41:55.129Z,101207.94
2023-02-14T23:44:23.458Z,101214.00
2023-02-14T23:46:51.311Z,101213.00
2023-02-14T23:49:19.661Z,101217.31
2023-02-14T23:51:47.333Z,101207.66
2023-02-14T23:54:15.625Z,101218.19
2023-02-14T23:56:43.466Z,101212.91
2023-02-14T23:59:11.159Z,101201.47
